createdAt,value
2022-10-23T00:01:41.493Z,23.33
2022-10-23T00:04:13.274Z,19.75
2022-10-23T00:06:40.684Z,22.08
2022-10-23T00:09:08.999Z,19.92
2022-10-23T00:11:36.775Z,26.73
2022-10-23T00:14:08.098Z,27.08
2022-10-23T00:16:38.141Z,13.47
2022-10-23T00:19:06.939Z,21.02
2022-10-23T00:21:57.422Z,22.42
2022-10-23T00:24:25.397Z,24.95
2022-10-23T00:26:54.480Z,22.58
2022-10-23T00:29:21.298Z,23.67
2022-10-23T00:31:59.752Z,25.30
2022-10-23T00:34:27.521Z,20.38
2022-10-23T00:36:54.178Z,20.23
2022-10-23T00:39:21.126Z,20.00
2022-10-23T00:41:47.816Z,20.17
2022-10-23T00:44:17.635Z,19.33
2022-10-23T00:46:46.104Z,16.38
2022-10-23T00:49:16.444Z,16.98
2022-10-23T00:51:53.932Z,23.38
2022-10-23T00:54:24.802Z,21.02
2022-10-23T00:56:56.049Z,26.33
2022-10-23T00:59:23.256Z,23.23
2022-10-23T01:01:50.235Z,20.25
2022-10-23T01:04:17.253Z,22.30
2022-10-23T01:07:08.616Z,15.38
2022-10-23T01:09:45.781Z,15.05
2022-10-23T01:12:31.995Z,25.40
2022-10-23T01:15:47.739Z,12.00
2022-10-23T01:18:20.702Z,22.02
2022-10-23T01:20:55.594Z,21.73
2022-10-23T01:23:40.904Z,18.80
2022-10-23T01:26:43.813Z,26.00
2022-10-23T01:29:19.852Z,23.67
2022-10-23T01:32:03.798Z,22.95
2022-10-23T01:34:56.524Z,19.77
2022-10-23T01:37:56.084Z,22.10
2022-10-23T01:40:32.279Z,24.83
2022-10-23T01:43:06.474Z,21.33
2022-10-23T01:45:50.562Z,24.48
2022-10-23T01:48:24.936Z,22.77
2022-10-23T01:50:56.373Z,25.60
2022-10-23T01:53:26.253Z,23.17
2022-10-23T01:55:57.168Z,22.90
2022-10-23T01:58:29.798Z,26.55
2022-10-23T02:01:07.820Z,28.33
2022-10-23T02:03:37.732Z,30.90
2022-10-23T02:06:09.345Z,23.52
2022-10-23T02:08:36.212Z,22.17
2022-10-23T02:11:13.220Z,27.92
2022-10-23T02:13:48.103Z,24.00
2022-10-23T02:16:23.219Z,30.77
2022-10-23T02:19:34.583Z,25.60
2022-10-23T02:22:07.210Z,31.42
2022-10-23T02:24:47.540Z,25.85
2022-10-23T02:27:30.041Z,25.40
2022-10-23T02:30:04.759Z,22.73
2022-10-23T02:32:31.546Z,26.95
2022-10-23T02:34:58.695Z,26.05
2022-10-23T02:37:25.691Z,24.17
2022-10-23T02:39:58.340Z,22.45
2022-10-23T02:42:44.434Z,26.92
2022-10-23T02:46:05.318Z,29.13
2022-10-23T02:48:55.459Z,23.30
2022-10-23T02:51:52.493Z,24.20
2022-10-23T02:54:47.432Z,24.95
2022-10-23T02:57:28.184Z,21.23
2022-10-23T03:00:07.389Z,21.48
2022-10-23T03:02:45.979Z,26.23
2022-10-23T03:05:26.891Z,24.02
2022-10-23T03:07:54.050Z,24.70
2022-10-23T03:10:23.188Z,23.30
2022-10-23T03:12:50.658Z,29.20
2022-10-23T03:15:23.744Z,27.42
2022-10-23T03:18:03.842Z,25.15
2022-10-23T03:20:36.587Z,29.35
2022-10-23T03:23:03.743Z,26.27
2022-10-23T03:25:36.403Z,27.58
2022-10-23T03:28:06.471Z,31.40
2022-10-23T03:30:33.879Z,25.20
2022-10-23T03:33:02.385Z,28.42
2022-10-23T03:35:29.114Z,23.90
2022-10-23T03:38:04.081Z,25.83
2022-10-23T03:40:31.127Z,27.23
2022-10-23T03:42:58.743Z,27.77
2022-10-23T03:45:29.757Z,30.73
2022-10-23T03:47:58.285Z,28.63
2022-10-23T03:50:28.134Z,27.92
2022-10-23T03:52:56.567Z,26.40
2022-10-23T03:55:23.645Z,27.10
2022-10-23T03:57:50.435Z,28.73
2022-10-23T04:00:37.455Z,27.05
2022-10-23T04:03:07.590Z,24.15
2022-10-23T04:05:36.190Z,22.23
2022-10-23T04:08:16.328Z,27.20
2022-10-23T04:10:53.054Z,23.95
2022-10-23T04:13:23.651Z,14.25
2022-10-23T04:15:57.886Z,21.20
2022-10-23T04:18:24.571Z,23.33
2022-10-23T04:20:51.551Z,27.27
2022-10-23T04:23:19.764Z,25.80
2022-10-23T04:25:49.578Z,23.60
2022-10-23T04:28:17.540Z,26.75
2022-10-23T04:30:46.633Z,28.63
2022-10-23T04:33:13.260Z,27.92
2022-10-23T04:35:41.349Z,20.65
2022-10-23T04:38:08.003Z,24.90
2022-10-23T04:40:34.813Z,27.05
2022-10-23T04:43:01.660Z,23.13
2022-10-23T04:45:28.391Z,20.75
2022-10-23T04:47:56.228Z,26.48
2022-10-23T04:50:23.322Z,24.92
2022-10-23T04:52:54.332Z,25.75
2022-10-23T04:55:21.179Z,24.40
2022-10-23T04:57:51.100Z,22.15
2022-10-23T05:00:18.624Z,21.30
2022-10-23T05:02:45.835Z,25.02
2022-10-23T05:05:12.686Z,21.58
2022-10-23T05:07:40.806Z,26.20
2022-10-23T05:10:08.152Z,22.85
2022-10-23T05:12:34.805Z,23.63
2022-10-23T05:15:45.299Z,18.92
2022-10-23T05:18:18.073Z,21.13
2022-10-23T05:20:47.636Z,29.58
2022-10-23T05:23:19.560Z,23.73
2022-10-23T05:25:48.254Z,20.00
2022-10-23T05:28:20.753Z,20.30
2022-10-23T05:30:49.663Z,22.70
2022-10-23T05:33:57.077Z,21.38
2022-10-23T05:36:27.640Z,20.60
2022-10-23T05:38:54.652Z,18.58
2022-10-23T05:41:21.398Z,29.55
2022-10-23T05:43:48.307Z,25.75
2022-10-23T05:46:15.159Z,23.33
2022-10-23T05:48:42.029Z,26.67
2022-10-23T05:51:11.883Z,17.50
2022-10-23T05:53:41.724Z,29.27
2022-10-23T05:56:09.688Z,25.20
2022-10-23T05:58:36.713Z,26.17
2022-10-23T06:01:09.109Z,14.43
2022-10-23T06:03:36.969Z,24.98
2022-10-23T06:06:04.260Z,13.05
2022-10-23T06:08:32.431Z,24.58
2022-10-23T06:11:02.037Z,22.27
2022-10-23T06:13:28.681Z,27.23
2022-10-23T06:15:55.356Z,24.45
2022-10-23T06:18:22.276Z,11.95
2022-10-23T06:20:49.380Z,10.82
2022-10-23T06:23:16.078Z,23.05
2022-10-23T06:25:42.859Z,29.23
2022-10-23T06:28:20.550Z,25.45
2022-10-23T06:30:47.652Z,15.32
2022-10-23T06:33:14.318Z,28.92
2022-10-23T06:35:41.059Z,25.17
2022-10-23T06:38:09.220Z,28.48
2022-10-23T06:40:36.370Z,15.60
2022-10-23T06:43:06.143Z,20.80
2022-10-23T06:45:34.088Z,23.55
2022-10-23T06:48:01.252Z,22.90
2022-10-23T06:50:31.140Z,24.27
2022-10-23T06:52:58.044Z,14.02
2022-10-23T06:55:24.892Z,25.63
2022-10-23T06:57:51.691Z,23.48
2022-10-23T07:00:18.386Z,28.48
2022-10-23T07:02:50.948Z,14.60
2022-10-23T07:05:19.571Z,25.00
2022-10-23T07:07:46.692Z,13.43
2022-10-23T07:12:40.286Z,29.95
2022-10-23T07:15:07.881Z,27.90
2022-10-23T07:17:34.523Z,23.60
2022-10-23T07:20:04.637Z,23.95
2022-10-23T07:22:36.502Z,23.27
2022-10-23T07:25:06.589Z,26.42
2022-10-23T07:27:44.631Z,21.10
2022-10-23T07:30:13.463Z,16.40
2022-10-23T07:32:40.994Z,22.92
2022-10-23T07:37:51.461Z,14.18
2022-10-23T07:40:29.751Z,14.05
2022-10-23T07:43:08.660Z,14.32
2022-10-23T07:45:38.449Z,15.98
2022-10-23T07:48:09.127Z,15.05
2022-10-23T07:50:38.224Z,12.68
2022-10-23T07:53:05.117Z,14.32
2022-10-23T07:55:32.139Z,18.33
2022-10-23T07:58:01.907Z,10.77
2022-10-23T08:00:33.484Z,20.90
2022-10-23T08:03:03.968Z,16.40
2022-10-23T08:05:30.841Z,17.23
2022-10-23T08:07:59.718Z,17.23
2022-10-23T08:10:31.860Z,8.93
2022-10-23T08:13:08.977Z,18.33
2022-10-23T08:15:35.855Z,15.73
2022-10-23T08:18:05.815Z,9.75
2022-10-23T08:20:34.390Z,15.10
2022-10-23T08:23:01.200Z,16.80
2022-10-23T08:25:27.905Z,9.60
2022-10-23T08:27:54.744Z,19.77
2022-10-23T08:30:21.458Z,16.33
2022-10-23T08:32:48.152Z,12.68
2022-10-23T08:35:24.544Z,17.52
2022-10-23T08:37:54.421Z,24.10
2022-10-23T08:40:25.368Z,8.25
2022-10-23T08:43:01.686Z,18.40
2022-10-23T08:46:00.263Z,10.73
2022-10-23T08:48:56.354Z,8.13
2022-10-23T08:51:34.621Z,8.63
2022-10-23T08:54:22.520Z,14.93
2022-10-23T08:57:01.520Z,14.35
2022-10-23T08:59:35.289Z,17.38
2022-10-23T09:02:30.650Z,17.77
2022-10-23T09:04:58.799Z,10.70
2022-10-23T09:07:34.819Z,15.32
2022-10-23T09:10:28.183Z,15.77
2022-10-23T09:13:04.482Z,16.60
2022-10-23T09:16:01.808Z,15.48
2022-10-23T09:18:31.788Z,18.65
2022-10-23T09:21:00.868Z,15.10
2022-10-23T09:23:27.728Z,12.50
2022-10-23T09:25:59.876Z,11.13
2022-10-23T09:28:33.297Z,10.82
2022-10-23T09:31:20.291Z,8.95
2022-10-23T09:34:10.970Z,19.40
2022-10-23T09:36:50.584Z,18.65
2022-10-23T09:39:32.823Z,14.25
2022-10-23T09:42:14.470Z,8.82
2022-10-23T09:44:52.948Z,9.50
2022-10-23T09:47:27.549Z,6.53
2022-10-23T09:49:57.210Z,6.68
2022-10-23T09:52:36.210Z,10.32
2022-10-23T09:55:24.987Z,7.38
2022-10-23T09:57:55.693Z,6.75
2022-10-23T10:00:25.363Z,8.25
2022-10-23T10:03:06.774Z,9.63
2022-10-23T10:05:38.858Z,13.65
2022-10-23T10:08:21.069Z,6.65
2022-10-23T10:11:02.537Z,8.50
2022-10-23T10:13:45.391Z,18.07
2022-10-23T10:16:45.587Z,9.32
2022-10-23T10:19:50.321Z,13.77
2022-10-23T10:22:32.036Z,14.02
2022-10-23T10:25:07.346Z,15.05
2022-10-23T10:28:00.912Z,14.98
2022-10-23T10:30:40.616Z,8.07
2022-10-23T10:33:46.574Z,13.88
2022-10-23T10:36:41.454Z,12.20
2022-10-23T10:39:42.263Z,11.35
2022-10-23T10:42:31.126Z,11.25
2022-10-23T10:45:07.199Z,9.60
2022-10-23T10:47:43.425Z,9.43
2022-10-23T10:50:25.913Z,7.95
2022-10-23T10:53:12.093Z,12.35
2022-10-23T10:55:46.962Z,15.32
2022-10-23T10:58:40.451Z,12.23
2022-10-23T11:01:29.202Z,14.85
2022-10-23T11:04:19.490Z,15.23
2022-10-23T11:06:51.923Z,11.30
2022-10-23T11:09:45.634Z,10.60
2022-10-23T11:12:24.781Z,8.40
2022-10-23T11:14:52.105Z,10.50
2022-10-23T11:17:43.351Z,11.48
2022-10-23T11:20:40.933Z,10.27
2022-10-23T11:23:48.731Z,13.20
2022-10-23T11:26:31.045Z,18.13
2022-10-23T11:29:29.358Z,8.65
2022-10-23T11:32:09.479Z,18.33
2022-10-23T11:34:46.259Z,10.05
2022-10-23T11:37:18.616Z,15.32
2022-10-23T11:40:14.611Z,11.77
2022-10-23T11:42:53.165Z,15.48
2022-10-23T11:45:40.779Z,10.15
2022-10-23T11:48:30.205Z,14.90
2022-10-23T11:51:00.326Z,11.23
2022-10-23T11:53:35.698Z,19.42
2022-10-23T11:56:26.981Z,11.95
2022-10-23T11:58:58.146Z,17.75
2022-10-23T12:01:45.679Z,12.77
2022-10-23T12:04:14.479Z,12.63
2022-10-23T12:06:56.421Z,17.40
2022-10-23T12:09:46.471Z,16.40
2022-10-23T12:12:20.775Z,16.42
2022-10-23T12:14:51.322Z,10.95
2022-10-23T12:17:37.301Z,16.70
2022-10-23T12:20:13.918Z,11.43
2022-10-23T12:22:53.509Z,14.73
2022-10-23T12:25:29.158Z,15.18
2022-10-23T12:28:09.551Z,18.08
2022-10-23T12:30:51.789Z,16.80
2022-10-23T12:36:09.999Z,16.75
2022-10-23T12:38:44.516Z,18.40
2022-10-23T12:41:43.255Z,17.52
2022-10-23T12:44:16.404Z,16.50
2022-10-23T12:46:47.584Z,13.45
2022-10-23T12:49:25.137Z,17.27
2022-10-23T12:52:07.792Z,12.68
2022-10-23T12:54:42.953Z,14.63
2022-10-23T12:57:32.889Z,17.35
2022-10-23T13:00:11.090Z,13.40
2022-10-23T13:02:39.736Z,17.00
2022-10-23T13:05:33.247Z,10.32
2022-10-23T13:08:02.496Z,16.20
2022-10-23T13:10:33.926Z,16.10
2022-10-23T13:13:05.528Z,9.40
2022-10-23T13:15:41.153Z,17.63
2022-10-23T13:18:09.569Z,15.90
2022-10-23T13:20:39.159Z,13.15
2022-10-23T13:23:26.056Z,8.52
2022-10-23T13:25:57.090Z,18.33
2022-10-23T13:29:00.565Z,18.02
2022-10-23T13:31:34.444Z,18.35
2022-10-23T13:34:06.255Z,20.08
2022-10-23T13:36:40.564Z,13.50
2022-10-23T13:39:13.329Z,21.30
2022-10-23T13:41:45.839Z,18.90
2022-10-23T13:44:23.735Z,17.67
2022-10-23T13:46:54.410Z,19.70
2022-10-23T13:49:21.252Z,22.75
2022-10-23T13:51:53.742Z,17.20
2022-10-23T13:56:57.959Z,20.02
2022-10-23T13:59:28.064Z,16.65
2022-10-23T14:01:57.838Z,16.67
2022-10-23T14:04:24.616Z,20.30
2022-10-23T14:06:55.063Z,20.77
2022-10-23T14:09:21.744Z,19.08
2022-10-23T14:11:54.081Z,20.90
2022-10-23T14:14:26.365Z,19.33
2022-10-23T14:16:54.955Z,11.30
2022-10-23T14:19:21.845Z,17.33
2022-10-23T14:21:55.899Z,19.67
2022-10-23T14:24:28.409Z,13.90
2022-10-23T14:27:02.606Z,19.42
2022-10-23T14:29:29.491Z,13.75
2022-10-23T14:31:56.321Z,11.45
2022-10-23T14:34:27.093Z,23.75
2022-10-23T14:37:04.050Z,25.92
2022-10-23T14:39:34.590Z,13.98
2022-10-23T14:42:30.533Z,21.55
2022-10-23T14:45:06.677Z,20.30
2022-10-23T14:47:33.463Z,19.38
2022-10-23T14:50:00.363Z,15.85
2022-10-23T14:52:27.463Z,16.35
2022-10-23T14:54:54.373Z,18.67
2022-10-23T14:57:24.220Z,17.73
2022-10-23T14:59:52.758Z,23.63
2022-10-23T15:02:20.873Z,21.65
2022-10-23T15:04:48.514Z,20.67
2022-10-23T15:07:16.346Z,24.27
2022-10-23T15:09:43.094Z,18.45
2022-10-23T15:12:09.820Z,17.40
2022-10-23T15:14:36.549Z,17.10
2022-10-23T15:17:06.208Z,21.67
2022-10-23T15:19:36.086Z,22.55
2022-10-23T15:22:03.028Z,23.38
2022-10-23T15:24:30.489Z,23.52
2022-10-23T15:26:57.372Z,19.52
2022-10-23T15:29:24.214Z,14.38
2022-10-23T15:31:57.761Z,21.92
2022-10-23T15:34:27.733Z,12.95
2022-10-23T15:37:01.188Z,16.30
2022-10-23T15:39:38.144Z,22.15
2022-10-23T15:42:06.694Z,24.00
2022-10-23T15:44:35.795Z,19.23
2022-10-23T15:47:02.901Z,20.92
2022-10-23T15:49:33.398Z,20.98
2022-10-23T15:52:04.995Z,13.70
2022-10-23T15:54:32.983Z,18.45
2022-10-23T15:57:05.485Z,17.63
2022-10-23T15:59:32.848Z,22.45
2022-10-23T16:02:02.980Z,16.83
2022-10-23T16:04:30.924Z,20.00
2022-10-23T16:07:00.770Z,19.00
2022-10-23T16:09:30.219Z,21.98
2022-10-23T16:11:57.172Z,26.02
2022-10-23T16:14:30.234Z,25.48
2022-10-23T16:17:00.225Z,28.20
2022-10-23T16:19:27.717Z,24.17
2022-10-23T16:21:54.761Z,23.50
2022-10-23T16:24:27.828Z,27.67
2022-10-23T16:27:02.957Z,17.33
2022-10-23T16:29:31.542Z,25.17
2022-10-23T16:32:03.503Z,19.23
2022-10-23T16:34:34.039Z,27.85
2022-10-23T16:37:02.432Z,23.33
2022-10-23T16:39:32.090Z,24.35
2022-10-23T16:42:01.765Z,27.25
2022-10-23T16:44:29.448Z,22.55
2022-10-23T16:47:02.325Z,23.20
2022-10-23T16:49:31.052Z,22.95
2022-10-23T16:51:58.461Z,22.88
2022-10-23T16:54:25.305Z,24.55
2022-10-23T16:56:52.224Z,25.33
2022-10-23T16:59:19.025Z,25.40
2022-10-23T17:01:53.093Z,25.35
2022-10-23T17:04:20.476Z,22.40
2022-10-23T17:06:47.249Z,27.20
2022-10-23T17:09:14.110Z,26.08
2022-10-23T17:11:44.174Z,24.60
2022-10-23T17:14:19.933Z,24.95
2022-10-23T17:16:51.676Z,24.73
2022-10-23T17:22:12.061Z,24.38
2022-10-23T17:24:41.198Z,25.30
2022-10-23T17:27:08.558Z,26.17
2022-10-23T17:29:44.721Z,29.63
2022-10-23T17:32:14.632Z,29.38
2022-10-23T17:34:46.259Z,27.85
2022-10-23T17:37:16.234Z,29.30
2022-10-23T17:39:43.258Z,27.75
2022-10-23T17:42:10.120Z,24.92
2022-10-23T17:44:37.002Z,29.23
2022-10-23T17:47:06.708Z,27.73
2022-10-23T17:49:33.567Z,27.20
2022-10-23T17:52:09.204Z,29.30
2022-10-23T17:54:36.148Z,24.48
2022-10-23T17:57:08.745Z,28.55
2022-10-23T17:59:35.542Z,30.08
2022-10-23T18:02:02.633Z,28.25
2022-10-23T18:04:31.139Z,29.90
2022-10-23T18:06:57.784Z,29.35
2022-10-23T18:09:24.506Z,31.17
2022-10-23T18:11:51.848Z,26.42
2022-10-23T18:14:20.324Z,35.63
2022-10-23T18:16:47.773Z,24.08
2022-10-23T18:19:19.522Z,30.33
2022-10-23T18:21:47.794Z,32.22
2022-10-23T18:24:15.455Z,33.03
2022-10-23T18:26:42.888Z,25.13
2022-10-23T18:29:14.723Z,30.17
2022-10-23T18:31:44.483Z,31.52
2022-10-23T18:34:21.685Z,26.77
2022-10-23T18:36:50.167Z,28.00
2022-10-23T18:39:19.445Z,31.05
2022-10-23T18:41:46.469Z,31.35
2022-10-23T18:44:17.624Z,36.83
2022-10-23T18:46:46.045Z,33.83
2022-10-23T18:49:13.097Z,25.52
2022-10-23T18:51:40.454Z,33.58
2022-10-23T18:54:12.244Z,30.00
2022-10-23T18:56:41.161Z,32.38
2022-10-23T18:59:12.245Z,34.65
2022-10-23T19:01:42.373Z,35.47
2022-10-23T19:04:12.648Z,25.17
2022-10-23T19:06:39.936Z,37.60
2022-10-23T19:09:08.365Z,35.03
2022-10-23T19:11:35.341Z,37.97
2022-10-23T19:14:03.118Z,34.42
2022-10-23T19:16:49.728Z,41.67
2022-10-23T19:19:30.666Z,41.20
2022-10-23T19:21:57.721Z,38.20
2022-10-23T19:24:38.516Z,38.47
2022-10-23T19:27:09.341Z,40.53
2022-10-23T19:29:45.203Z,28.98
2022-10-23T19:32:15.113Z,29.63
2022-10-23T19:34:44.562Z,36.80
2022-10-23T19:37:11.558Z,36.28
2022-10-23T19:39:41.430Z,37.15
2022-10-23T19:42:11.542Z,38.95
2022-10-23T19:44:39.003Z,25.27
2022-10-23T19:47:09.186Z,34.50
2022-10-23T19:49:44.440Z,37.92
2022-10-23T19:52:18.077Z,36.80
2022-10-23T19:54:45.865Z,35.78
2022-10-23T19:57:17.046Z,42.00
2022-10-23T19:59:53.465Z,37.58
2022-10-23T20:02:21.397Z,42.80
2022-10-23T20:04:48.856Z,35.92
2022-10-23T20:07:17.608Z,42.55
2022-10-23T20:09:44.844Z,38.90
2022-10-23T20:12:14.600Z,42.13
2022-10-23T20:14:44.269Z,35.75
2022-10-23T20:17:13.342Z,40.33
2022-10-23T20:19:40.795Z,26.67
2022-10-23T20:22:14.761Z,37.08
2022-10-23T20:24:45.351Z,35.38
2022-10-23T20:27:15.843Z,39.65
2022-10-23T20:29:48.371Z,23.27
2022-10-23T20:32:17.271Z,42.72
2022-10-23T20:34:46.142Z,42.35
2022-10-23T20:37:22.048Z,26.05
2022-10-23T20:40:02.347Z,42.83
2022-10-23T20:42:29.924Z,44.45
2022-10-23T20:45:03.718Z,42.38
2022-10-23T20:47:33.019Z,39.92
2022-10-23T20:50:00.347Z,44.25
2022-10-23T20:52:30.350Z,40.42
2022-10-23T20:55:01.948Z,41.00
2022-10-23T20:57:34.805Z,38.75
2022-10-23T21:00:15.442Z,44.17
2022-10-23T21:02:52.134Z,48.33
2022-10-23T21:05:28.024Z,48.42
2022-10-23T21:07:58.989Z,44.88
2022-10-23T21:10:39.709Z,50.15
2022-10-23T21:13:06.578Z,49.20
2022-10-23T21:15:34.778Z,52.78
2022-10-23T21:18:13.191Z,50.28
2022-10-23T21:21:01.230Z,56.70
2022-10-23T21:23:29.724Z,48.50
2022-10-23T21:26:06.344Z,46.58
2022-10-23T21:28:44.272Z,51.15
2022-10-23T21:31:20.885Z,47.53
2022-10-23T21:33:51.292Z,27.30
2022-10-23T21:36:20.584Z,57.60
2022-10-23T21:39:00.268Z,40.20
2022-10-23T21:41:34.611Z,56.05
2022-10-23T21:44:07.194Z,54.67
2022-10-23T21:46:37.355Z,55.67
2022-10-23T21:49:14.172Z,53.22
2022-10-23T21:51:47.532Z,53.38
2022-10-23T21:54:16.504Z,52.88
2022-10-23T21:56:54.176Z,49.35
2022-10-23T21:59:30.325Z,38.80
2022-10-23T22:02:07.124Z,51.38
2022-10-23T22:04:35.134Z,48.78
2022-10-23T22:07:10.967Z,52.13
2022-10-23T22:09:37.711Z,27.13
2022-10-23T22:12:04.532Z,50.72
2022-10-23T22:14:31.298Z,51.35
2022-10-23T22:16:58.671Z,53.90
2022-10-23T22:19:26.416Z,53.35
2022-10-23T22:21:53.232Z,51.65
2022-10-23T22:24:23.475Z,51.75
2022-10-23T22:26:53.835Z,47.67
2022-10-23T22:29:31.537Z,48.85
2022-10-23T22:32:03.289Z,32.25
2022-10-23T22:34:53.674Z,48.03
2022-10-23T22:37:25.508Z,52.60
2022-10-23T22:39:52.862Z,52.42
2022-10-23T22:42:22.577Z,49.20
2022-10-23T22:44:49.436Z,40.85
2022-10-23T22:47:16.267Z,28.80
2022-10-23T22:49:47.622Z,27.92
2022-10-23T22:52:17.306Z,50.20
2022-10-23T22:54:50.661Z,53.10
2022-10-23T22:57:17.697Z,47.47
2022-10-23T22:59:44.513Z,48.30
2022-10-23T23:02:11.276Z,48.20
2022-10-23T23:04:39.238Z,54.95
2022-10-23T23:07:08.478Z,47.70
2022-10-23T23:09:43.823Z,60.63
2022-10-23T23:12:18.179Z,53.90
2022-10-23T23:14:45.073Z,29.20
2022-10-23T23:17:13.267Z,49.20
2022-10-23T23:19:40.214Z,54.45
2022-10-23T23:22:09.727Z,35.60
2022-10-23T23:24:36.698Z,52.67
2022-10-23T23:27:06.579Z,37.20
2022-10-23T23:29:36.155Z,41.85
2022-10-23T23:32:09.799Z,43.53
2022-10-23T23:34:36.658Z,45.85
2022-10-23T23:37:03.428Z,32.13
2022-10-23T23:39:30.187Z,47.85
2022-10-23T23:42:02.707Z,48.10
2022-10-23T23:44:31.075Z,43.55
2022-10-23T23:47:06.406Z,44.00
2022-10-23T23:49:33.316Z,46.78
2022-10-23T23:52:03.889Z,50.70
2022-10-23T23:54:30.710Z,44.17
2022-10-23T23:57:00.004Z,48.28
2022-10-23T23:59:26.843Z,44.78
